Koninklijk Nederlands Meteorologisch Instituut; Ministerie van Verkeer en Waterstaat

 
Weer
Nederlandse vliegveldverwachtingen (TAF)
Luchtvaartmeteorologische informatie voor operationeel gebruik en vluchtvoorbereiding is beschikbaar op www.luchtvaartmeteo.nl, voor toelichting zie hier.
ZCZC
FT231100 EHAM     AMSTERDAM/SCHIPHOL   NLD   -3 m.
TAF EHAM 231116Z 2312/2418 02012KT 9999 SCT025
    BECMG 2319/2322 02007KT CAVOK
    BECMG 2401/2404 11002KT
    PROB30 2402/2405 7000 MIFG
    BECMG 2408/2411 28010KT FEW030=

ZCZC
FT231100 EHGG     GRONINGEN/EELDE   NLD   5 m.
TAF EHGG 231118Z 2312/2418 02010KT 9999 BKN030
    BECMG 2318/2321 VRB03KT CAVOK
    PROB40 TEMPO 2402/2405 1200 MIFG BCFG
    BECMG 2412/2415 23006KT=

ZCZC
FT231100 EHRD     ROTTERDAM/THE HAGUE AIRPORT   NLD   -5 m.
TAF EHRD 231116Z 2312/2418 03010KT 9999 SCT025
    BECMG 2319/2322 02005KT CAVOK
    BECMG 2401/2404 VRB03KT 7000 MIFG
    PROB30 2402/2405 1400 BCFG
    BECMG 2405/2408 9999 FEW025
    BECMG 2408/2411 27008KT=

ZCZC
FT231100 EHBK     MAASTRICHT/MAASTRICHT-AACHEN   NLD   114 m.
TAF EHBK 231118Z 2312/2418 34005KT 9999 BKN040
    BECMG 2312/2315 02010KT SCT012 BKN018
    TEMPO 2313/2317 6000 -DZRA -SHRA SCT007 BKN010 FEW018TCU
    PROB30 TEMPO 2313/2315 4500 BKN007
    BECMG 2318/2321 01006KT CAVOK=

ZCZC
FT231100 EHEH     EINDHOVEN/EINDHOVEN   NLD   22 m.
TAF EHEH 231120Z 2312/2418 01010KT 7000 -RADZ SCT008 BKN012
    PROB40 TEMPO 2312/2313 3800 DZRA
    PROB30 2313/2315 04012G22KT 5000 -SHRA SCT018CB BKN025
    BECMG 2313/2315 9999 NSW SCT020 BKN030
    BECMG 2404/2406 05005KT
    BECMG 2407/2409 VRB02KT
    BECMG 2413/2416 27004KT=

ZCZC
FC231200 EHWO     WOENSDRECHT/WOENSDRECHT   NLD   19 m.
TAF EHWO 231200Z NIL=

ZCZC
FC231200 EHVK     VOLKEL/VOLKEL   NLD   21 m.
TAF EHVK 231249Z 2313/2401 02011KT 9999 SCT010 BKN015
    BECMG 2314/2315 SCT020 BKN030
    BECMG 2327/2319 01007KT FEW040=

ZCZC
FC231200 EHLW     LEEUWARDEN/LEEUWARDEN   NLD   1 m.
TAF EHLW 231200Z NIL=

ZCZC
FC231200 EHGR     GILZE-RIJEN/GILZE-RIJEN   NLD   14 m.
TAF EHGR 231200Z NIL=

ZCZC
FC231300 EHKD     DE KOOY/DE KOOY   NLD   1 m.
TAF EHKD 231253Z 2313/2401 03012KT 9999 FEW022 SCT030
    TEMPO 2313/2317 04012G22KT
    BECMG 2322/2401 06004KT=